Terminal Aerodrome Forecast
Issued by NWS

Home | Current Version | Previous Version | Text Only | Print | Product List | Glossary On
Versions: 1 2 3 4 5 6 7 8 9 10 11 12 13 14 15 16 17 18 19 20 21 22
000
FTUS43 KMQT 192300
TAFIWD
TAF
KIWD 192325Z 2000/2024 20012G22KT P6SM -SHRA BKN035
     FM200100 22012KT P6SM -SHRA OVC020
     FM200400 23010KT 6SM BR VCSH OVC009
      TEMPO 2004/2006 OVC010
     FM201100 26008KT P6SM -SHRA OVC009
     FM201400 28010KT P6SM BKN015
     FM201900 28010KT P6SM SCT025
      AMD LTD TO CLD VIS AND WIND=

USA.gov is the U.S. government's official web portal to all federal, state and local government web resources and services.